Time;durP1;ratioP1;P1;durP2;ratioP2;P2;SDS_P1;SDS_P2;PMS_P1;PMS_P2;Temp;Humidity;BMP_temperature;BMP_pressure;BME280_temperature;BME280_humidity;BME280_pressure;Samples;Min_cycle;Max_cycle;Signal;HPM_P1;HPM_P2
2024/01/03 00:01:44;;;;;;;29.88;5.18;;;11.30;99.90;;;;;;4233492;28;20028;-83
2024/01/03 00:03:46;;;;;;;33.75;6.95;;;11.30;99.90;;;;;;4232882;28;20096;-81
2024/01/03 00:05:48;;;;;;;34.45;6.25;;;11.30;99.90;;;;;;4234061;28;20040;-81
2024/01/03 00:07:51;;;;;;;28.08;5.35;;;11.30;99.90;;;;;;4235868;28;20056;-82
2024/01/03 00:09:56;;;;;;;34.65;7.03;;;11.30;99.90;;;;;;4237497;28;20043;-83
2024/01/03 00:12:00;;;;;;;;;;;11.30;99.90;;;;;;4238094;28;20131;-82
2024/01/03 00:14:07;;;;;;;23.20;6.15;;;11.30;99.90;;;;;;4237746;28;19959;-82
2024/01/03 00:16:23;;;;;;;34.95;6.15;;;11.30;99.90;;;;;;4237190;28;20100;-83
2024/01/03 00:18:32;;;;;;;31.67;7.10;;;11.30;99.90;;;;;;4237267;28;20044;-84
2024/01/03 00:20:35;;;;;;;34.53;6.28;;;11.30;99.90;;;;;;4237212;28;20036;-83
2024/01/03 00:22:39;;;;;;;30.73;6.00;;;11.30;99.90;;;;;;4237783;28;20044;-84
2024/01/03 00:24:46;;;;;;;26.63;5.57;;;11.30;99.90;;;;;;4237281;28;20052;-83
2024/01/03 00:26:50;;;;;;;27.95;5.50;;;11.30;99.90;;;;;;4237831;28;20040;-84
2024/01/03 00:28:52;;;;;;;29.63;6.18;;;11.30;99.90;;;;;;4237640;28;20070;-84
2024/01/03 00:30:55;;;;;;;33.00;5.65;;;11.40;99.90;;;;;;4236330;28;20111;-83
2024/01/03 00:32:57;;;;;;;31.13;6.82;;;11.40;99.90;;;;;;4236429;28;20052;-83
2024/01/03 00:35:09;;;;;;;27.05;5.78;;;11.40;99.90;;;;;;4237687;28;20032;-85
2024/01/03 00:37:23;;;;;;;25.50;5.78;;;11.40;99.90;;;;;;4237717;28;20027;-83
2024/01/03 00:39:27;;;;;;;26.80;6.63;;;11.40;99.90;;;;;;4237057;28;20040;-83
2024/01/03 00:41:29;;;;;;;36.90;6.60;;;11.40;99.90;;;;;;4237277;28;20039;-84
2024/01/03 00:43:32;;;;;;;32.35;6.95;;;11.40;99.90;;;;;;4236959;28;20024;-83
2024/01/03 00:45:34;;;;;;;30.25;6.90;;;11.40;99.90;;;;;;4236930;28;20032;-84
2024/01/03 00:47:36;;;;;;;24.25;5.88;;;11.40;99.90;;;;;;4233832;28;20054;-83
2024/01/03 00:49:39;;;;;;;30.05;5.88;;;11.40;99.90;;;;;;4233954;28;20410;-84
2024/01/03 00:51:45;;;;;;;30.15;6.00;;;11.40;99.90;;;;;;4235157;28;20028;-83
2024/01/03 00:53:48;;;;;;;33.92;6.47;;;11.50;99.90;;;;;;4234508;28;20091;-84
2024/01/03 00:55:50;;;;;;;31.13;5.85;;;11.50;99.90;;;;;;4234343;28;20418;-83
2024/01/03 00:57:52;;;;;;;35.28;6.43;;;11.40;99.90;;;;;;4235912;28;20044;-83
2024/01/03 00:59:56;;;;;;;32.90;7.63;;;11.40;99.90;;;;;;4235566;28;20044;-82
2024/01/03 01:01:58;;;;;;;27.02;6.53;;;11.40;99.90;;;;;;4236097;28;20105;-82
2024/01/03 01:04:01;;;;;;;26.80;6.15;;;11.40;99.90;;;;;;4235354;28;20060;-82
2024/01/03 01:06:27;;;;;;;29.67;6.57;;;11.30;99.90;;;;;;4216806;28;20219;-82
2024/01/03 01:08:29;;;;;;;30.60;5.75;;;11.30;99.90;;;;;;4217204;28;20049;-83
2024/01/03 01:10:31;;;;;;;25.83;5.60;;;11.30;99.90;;;;;;4217391;28;20106;-82
2024/01/03 01:12:34;;;;;;;30.27;6.43;;;11.30;99.90;;;;;;4217642;28;20107;-83
2024/01/03 01:14:37;;;;;;;29.55;6.63;;;11.30;99.90;;;;;;4215947;28;20049;-82
2024/01/03 01:16:40;;;;;;;31.92;6.32;;;11.30;99.90;;;;;;4216424;28;20052;-82
2024/01/03 01:18:42;;;;;;;30.65;5.95;;;11.30;99.90;;;;;;4216414;28;20181;-83
2024/01/03 01:20:45;;;;;;;29.48;6.45;;;11.30;99.90;;;;;;4217708;28;20068;-84
2024/01/03 01:22:47;;;;;;;30.65;6.05;;;11.30;99.90;;;;;;4200305;28;20049;-82
2024/01/03 01:24:49;;;;;;;36.58;6.68;;;11.30;99.90;;;;;;4216765;28;20080;-83
2024/01/03 01:26:51;;;;;;;27.98;6.10;;;11.30;99.90;;;;;;4216868;28;20092;-83
2024/01/03 01:28:53;;;;;;;28.42;5.88;;;11.40;99.90;;;;;;4216866;28;20290;-82
2024/01/03 01:30:55;;;;;;;27.73;6.38;;;11.40;99.90;;;;;;4217210;28;20052;-83
2024/01/03 01:32:59;;;;;;;32.30;6.85;;;11.40;99.90;;;;;;4215512;28;20075;-82
2024/01/03 01:35:01;;;;;;;30.77;5.80;;;11.40;99.90;;;;;;4215622;28;20037;-84
2024/01/03 01:37:03;;;;;;;23.80;5.57;;;11.40;99.90;;;;;;4205535;28;20075;-84
2024/01/03 01:39:05;;;;;;;28.60;6.47;;;11.40;99.90;;;;;;4234153;28;20044;-83
2024/01/03 01:41:25;;;;;;;34.20;5.88;;;11.30;99.90;;;;;;4233564;28;20051;-83
2024/01/03 01:43:39;;;;;;;29.30;5.85;;;11.30;99.90;;;;;;4235144;28;20172;-84
2024/01/03 01:45:46;;;;;;;26.63;5.88;;;11.30;99.90;;;;;;4234341;28;20039;-82
2024/01/03 01:47:49;;;;;;;32.65;7.80;;;11.30;99.90;;;;;;4233806;28;20028;-83
2024/01/03 01:49:53;;;;;;;39.22;7.57;;;11.30;99.90;;;;;;4234746;28;20040;-81
2024/01/03 01:51:55;;;;;;;30.70;6.05;;;11.30;99.90;;;;;;4234496;28;20032;-82
2024/01/03 01:53:58;;;;;;;33.83;6.45;;;11.30;99.90;;;;;;4233446;28;20048;-82
2024/01/03 01:56:01;;;;;;;37.85;6.88;;;11.40;99.90;;;;;;4234971;28;20056;-82
2024/01/03 01:58:03;;;;;;;32.50;6.38;;;11.40;99.90;;;;;;4234512;28;20032;-83
2024/01/03 02:00:08;;;;;;;39.63;6.28;;;11.40;99.90;;;;;;4233844;28;20469;-83
2024/01/03 02:02:11;;;;;;;31.90;6.70;;;11.50;99.90;;;;;;4233557;28;20044;-81
2024/01/03 02:04:14;;;;;;;28.35;5.85;;;11.50;99.90;;;;;;4215761;28;20052;-83
2024/01/03 02:06:20;;;;;;;36.15;6.25;;;11.50;99.90;;;;;;4232274;28;20097;-83
2024/01/03 02:08:24;;;;;;;31.45;5.75;;;11.50;99.90;;;;;;4233359;28;20032;-83
2024/01/03 02:10:26;;;;;;;36.03;6.70;;;11.50;99.90;;;;;;4233598;28;20073;-83
2024/01/03 02:12:28;;;;;;;26.98;5.88;;;11.50;99.90;;;;;;4233273;28;20070;-83
2024/01/03 02:14:30;;;;;;;29.08;6.32;;;11.50;99.90;;;;;;4233744;28;20052;-82
2024/01/03 02:16:32;;;;;;;31.38;5.97;;;11.50;99.90;;;;;;4234015;28;20064;-83
2024/01/03 02:18:35;;;;;;;29.58;7.07;;;11.50;99.90;;;;;;4233193;28;20047;-83
2024/01/03 02:20:39;;;;;;;32.55;5.55;;;11.50;99.90;;;;;;4232301;28;20047;-83
2024/01/03 02:22:42;;;;;;;27.70;5.32;;;11.60;99.90;;;;;;4233800;28;20044;-84
2024/01/03 02:24:44;;;;;;;33.15;7.15;;;11.60;99.90;;;;;;4233010;28;20066;-83
2024/01/03 02:26:46;;;;;;;27.95;5.53;;;11.60;99.90;;;;;;4233588;28;20028;-84
2024/01/03 02:28:49;;;;;;;33.75;6.90;;;11.60;99.90;;;;;;4232928;28;20113;-83
2024/01/03 02:30:51;;;;;;;26.83;6.25;;;11.70;99.90;;;;;;4231968;28;20052;-83
2024/01/03 02:32:53;;;;;;;24.23;5.88;;;11.60;99.90;;;;;;4232767;28;20044;-84
2024/01/03 02:34:55;;;;;;;30.70;6.47;;;11.70;99.90;;;;;;4232809;28;20044;-83
2024/01/03 02:36:57;;;;;;;28.98;6.20;;;11.70;99.90;;;;;;4234131;28;20051;-83
2024/01/03 02:39:02;;;;;;;29.75;6.10;;;11.60;99.90;;;;;;4234030;28;20182;-83
2024/01/03 02:41:04;;;;;;;34.70;5.82;;;11.60;99.90;;;;;;4232489;28;20083;-83
2024/01/03 02:43:06;;;;;;;36.47;7.35;;;11.70;99.90;;;;;;4232381;28;20073;-83
2024/01/03 02:45:09;;;;;;;32.22;6.57;;;11.70;99.90;;;;;;4232319;28;20024;-83
2024/01/03 02:47:11;;;;;;;34.63;6.28;;;11.60;99.90;;;;;;4232776;28;20054;-83
2024/01/03 02:49:13;;;;;;;32.08;7.07;;;11.60;99.90;;;;;;4233019;28;20056;-83
2024/01/03 02:51:19;;;;;;;29.70;5.72;;;11.60;99.90;;;;;;4232796;28;20046;-83
2024/01/03 02:53:21;;;;;;;29.02;6.57;;;11.60;99.90;;;;;;4229158;28;20048;-83
2024/01/03 02:55:24;;;;;;;35.47;6.38;;;11.60;99.90;;;;;;4228277;28;20101;-83
2024/01/03 02:57:26;;;;;;;27.13;6.75;;;11.60;99.90;;;;;;4229573;28;20039;-84
2024/01/03 02:59:28;;;;;;;27.20;6.00;;;11.60;99.90;;;;;;4229038;28;20054;-83
2024/01/03 03:01:30;;;;;;;28.70;6.30;;;11.60;99.90;;;;;;4229876;28;20044;-84
2024/01/03 03:03:32;;;;;;;28.13;6.13;;;11.50;99.90;;;;;;4228500;28;20048;-83
2024/01/03 03:05:34;;;;;;;36.30;7.40;;;11.50;99.90;;;;;;4228704;28;20094;-83
2024/01/03 03:07:37;;;;;;;36.20;6.50;;;11.50;99.90;;;;;;4229070;28;20044;-84
2024/01/03 03:09:40;;;;;;;31.45;6.93;;;11.50;99.90;;;;;;4226948;28;20097;-83
2024/01/03 03:11:44;;;;;;;32.28;7.68;;;11.50;99.90;;;;;;4227513;28;20072;-82
2024/01/03 03:13:46;;;;;;;;;;;11.50;99.90;;;;;;4228703;28;20036;-84
2024/01/03 03:15:49;;;;;;;33.83;6.88;;;11.50;99.90;;;;;;4229574;28;19920;-84
2024/01/03 03:17:51;;;;;;;38.90;7.65;;;11.40;99.90;;;;;;4229119;28;20044;-83
2024/01/03 03:19:53;;;;;;;43.17;6.78;;;11.40;99.90;;;;;;4230376;28;20044;-84
2024/01/03 03:21:55;;;;;;;33.72;7.05;;;11.40;99.90;;;;;;4228988;28;20044;-82
2024/01/03 03:23:57;;;;;;;30.17;6.22;;;11.40;99.90;;;;;;4229171;28;20561;-83
2024/01/03 03:26:01;;;;;;;31.23;6.53;;;11.40;99.90;;;;;;4213796;28;20024;-82
2024/01/03 03:28:07;;;;;;;34.13;6.97;;;11.40;99.90;;;;;;4229816;28;20085;-83
2024/01/03 03:30:11;;;;;;;30.23;5.70;;;11.40;99.90;;;;;;4229974;28;20052;-83
2024/01/03 03:32:14;;;;;;;33.08;6.97;;;11.40;99.90;;;;;;4229850;28;20082;-83
2024/01/03 03:34:17;;;;;;;36.30;7.00;;;11.40;99.90;;;;;;4228403;28;20040;-83
2024/01/03 03:36:21;;;;;;;30.27;6.05;;;11.40;99.90;;;;;;4210214;28;20044;-82
2024/01/03 03:38:23;;;;;;;29.50;6.95;;;11.40;99.90;;;;;;4229850;28;20103;-83
2024/01/03 03:40:25;;;;;;;28.50;5.53;;;11.40;99.90;;;;;;4227344;28;20546;-83
2024/01/03 03:42:27;;;;;;;29.75;6.25;;;11.30;99.90;;;;;;4229863;28;20064;-83
2024/01/03 03:44:32;;;;;;;25.17;5.82;;;11.40;99.90;;;;;;4229301;28;20040;-83
2024/01/03 03:46:34;;;;;;;25.98;5.40;;;11.40;99.90;;;;;;4227204;28;20052;-82
2024/01/03 03:48:36;;;;;;;18.25;4.47;;;11.30;99.90;;;;;;4226335;28;20123;-81
2024/01/03 03:50:39;;;;;;;26.08;5.32;;;11.30;99.90;;;;;;4225881;28;20048;-81
2024/01/03 03:52:41;;;;;;;23.27;5.50;;;11.40;99.90;;;;;;4210324;28;20051;-82
2024/01/03 03:54:43;;;;;;;20.90;4.22;;;11.40;99.90;;;;;;4228801;28;20051;-81
2024/01/03 03:56:49;;;;;;;22.10;5.15;;;11.40;99.90;;;;;;4227358;28;20073;-81
2024/01/03 03:58:51;;;;;;;17.00;4.20;;;11.40;99.90;;;;;;4226388;28;20054;-82
2024/01/03 04:00:55;;;;;;;18.00;4.45;;;11.50;99.90;;;;;;4223935;28;20122;-83
2024/01/03 04:02:57;;;;;;;18.92;4.15;;;11.50;99.90;;;;;;4224218;28;20441;-82
2024/01/03 04:04:59;;;;;;;15.20;3.25;;;11.50;99.90;;;;;;4227047;28;20056;-83
2024/01/03 04:07:01;;;;;;;11.27;3.50;;;11.50;99.90;;;;;;4224115;28;20044;-82
2024/01/03 04:09:04;;;;;;;15.98;3.50;;;11.50;99.90;;;;;;4222032;28;20040;-82
2024/01/03 04:11:06;;;;;;;10.90;2.55;;;11.50;99.90;;;;;;4223937;28;20059;-82
2024/01/03 04:13:08;;;;;;;14.73;2.95;;;11.40;99.90;;;;;;4223489;28;20040;-82
2024/01/03 04:15:10;;;;;;;15.10;3.60;;;11.40;99.90;;;;;;4208192;28;20067;-82
2024/01/03 04:17:14;;;;;;;14.82;2.88;;;11.40;99.90;;;;;;4206672;28;20045;-82
2024/01/03 04:19:16;;;;;;;15.38;3.10;;;11.40;99.90;;;;;;4207038;28;20040;-81
2024/01/03 04:21:19;;;;;;;10.50;2.63;;;11.40;99.90;;;;;;4207071;28;20041;-82
2024/01/03 04:23:21;;;;;;;11.15;3.15;;;11.40;99.90;;;;;;4206338;28;20400;-82
2024/01/03 04:25:23;;;;;;;9.45;2.13;;;11.40;99.90;;;;;;4206448;28;20048;-83
2024/01/03 04:27:25;;;;;;;10.40;2.33;;;11.50;99.90;;;;;;4187936;28;20049;-82
2024/01/03 04:29:27;;;;;;;8.90;2.53;;;11.40;99.90;;;;;;4206742;28;20056;-82
2024/01/03 04:31:29;;;;;;;10.38;2.63;;;11.40;99.90;;;;;;4205398;28;20049;-82
2024/01/03 04:33:36;;;;;;;10.05;2.17;;;11.40;99.90;;;;;;4206577;28;20083;-81
2024/01/03 04:35:39;;;;;;;12.70;2.70;;;11.40;99.90;;;;;;4205596;28;20056;-82
2024/01/03 04:37:42;;;;;;;8.98;2.30;;;11.40;99.90;;;;;;4187984;28;20481;-81
2024/01/03 04:39:44;;;;;;;12.80;2.65;;;11.30;99.90;;;;;;4206438;28;20063;-82
2024/01/03 04:41:47;;;;;;;12.00;2.65;;;11.30;99.90;;;;;;4204072;28;20367;-82
2024/01/03 04:43:49;;;;;;;13.63;3.30;;;11.30;99.90;;;;;;4206736;28;20098;-82
2024/01/03 04:45:51;;;;;;;16.40;3.35;;;11.30;99.90;;;;;;4207327;28;20041;-81
2024/01/03 04:47:53;;;;;;;13.15;2.63;;;11.30;99.90;;;;;;4206368;28;20047;-81
2024/01/03 04:49:57;;;;;;;16.13;3.38;;;11.20;99.90;;;;;;4188455;28;20056;-82
2024/01/03 04:51:59;;;;;;;15.02;3.35;;;11.30;99.90;;;;;;4205404;28;20051;-81
2024/01/03 04:54:01;;;;;;;21.77;4.15;;;11.30;99.90;;;;;;4205678;28;20488;-81
2024/01/03 04:56:04;;;;;;;14.80;3.85;;;11.30;99.90;;;;;;4206817;28;20047;-82
2024/01/03 04:58:06;;;;;;;19.90;3.75;;;11.30;99.90;;;;;;4206067;28;20048;-81
2024/01/03 05:00:09;;;;;;;17.17;3.33;;;11.30;99.90;;;;;;4216836;28;20040;-81
2024/01/03 05:02:11;;;;;;;20.17;3.80;;;11.30;99.90;;;;;;4223299;28;20119;-82
2024/01/03 05:04:13;;;;;;;17.77;3.70;;;11.30;99.90;;;;;;4223871;28;20044;-81
2024/01/03 05:06:17;;;;;;;18.65;4.18;;;11.30;99.90;;;;;;4223808;28;20077;-82
2024/01/03 05:08:20;;;;;;;17.47;3.10;;;11.30;99.90;;;;;;4223399;28;20590;-82
2024/01/03 05:10:22;;;;;;;17.80;3.70;;;11.20;99.90;;;;;;4225253;28;20448;-82
2024/01/03 05:12:24;;;;;;;17.10;4.00;;;11.30;99.90;;;;;;4225227;28;20052;-82
2024/01/03 05:14:26;;;;;;;22.13;4.43;;;11.30;99.90;;;;;;4224302;28;20075;-82
2024/01/03 05:16:28;;;;;;;16.02;3.35;;;11.30;99.90;;;;;;4224576;28;20099;-82
2024/01/03 05:18:30;;;;;;;21.02;3.78;;;11.30;99.90;;;;;;4225042;28;20044;-81
2024/01/03 05:20:32;;;;;;;17.25;3.92;;;11.40;99.90;;;;;;4223619;28;20070;-82
2024/01/03 05:22:36;;;;;;;18.55;4.55;;;11.40;99.90;;;;;;4207804;28;20079;-82
2024/01/03 05:24:38;;;;;;;18.55;4.18;;;11.40;99.90;;;;;;4224440;28;20051;-82
2024/01/03 05:26:40;;;;;;;15.77;3.25;;;11.40;99.90;;;;;;4225380;28;20074;-83
2024/01/03 05:28:42;;;;;;;16.55;3.53;;;11.40;99.90;;;;;;4227329;28;20068;-82
2024/01/03 05:30:44;;;;;;;16.48;3.22;;;11.50;99.90;;;;;;4226847;28;20146;-82
2024/01/03 05:32:46;;;;;;;20.88;4.28;;;11.40;99.90;;;;;;4225762;28;20048;-82
2024/01/03 05:34:49;;;;;;;13.27;3.03;;;11.40;99.90;;;;;;4227082;28;20048;-82
2024/01/03 05:36:51;;;;;;;16.70;3.60;;;11.40;99.90;;;;;;4225408;28;20040;-82
2024/01/03 05:38:55;;;;;;;16.52;3.00;;;11.30;99.90;;;;;;4224707;28;20040;-81
2024/01/03 05:40:59;;;;;;;12.98;3.53;;;11.30;99.90;;;;;;4206330;28;20044;-82
2024/01/03 05:43:01;;;;;;;12.38;3.13;;;11.30;99.90;;;;;;4223717;28;20048;-81
2024/01/03 05:45:03;;;;;;;16.98;3.20;;;11.30;99.90;;;;;;4223152;28;20067;-82
2024/01/03 05:47:06;;;;;;;13.40;2.83;;;11.30;99.90;;;;;;4225023;28;20040;-81
2024/01/03 05:49:08;;;;;;;12.68;2.90;;;11.30;99.90;;;;;;4223531;28;20055;-82
2024/01/03 05:51:10;;;;;;;12.25;2.92;;;11.30;99.90;;;;;;4224148;28;20040;-81
2024/01/03 05:53:12;;;;;;;11.45;2.53;;;11.30;99.90;;;;;;4222456;28;20048;-81
2024/01/03 05:55:16;;;;;;;11.32;2.80;;;11.20;99.90;;;;;;4223046;28;20060;-81
2024/01/03 05:57:18;;;;;;;12.25;3.40;;;11.20;99.90;;;;;;4222363;28;20044;-81
2024/01/03 05:59:20;;;;;;;12.80;2.58;;;11.20;99.90;;;;;;4221531;28;20067;-82
2024/01/03 06:01:22;;;;;;;17.33;3.30;;;11.20;99.90;;;;;;4223396;28;20123;-82
2024/01/03 06:03:24;;;;;;;11.90;2.67;;;11.10;99.90;;;;;;4221568;28;20048;-81
2024/01/03 06:05:26;;;;;;;21.40;3.35;;;11.10;99.90;;;;;;4225998;28;20054;-82
2024/01/03 06:07:28;;;;;;;17.83;3.28;;;11.10;99.90;;;;;;4225700;28;20072;-81
2024/01/03 06:09:31;;;;;;;13.15;2.92;;;11.10;99.90;;;;;;4226487;28;20040;-81
2024/01/03 06:11:35;;;;;;;12.25;2.58;;;11.10;99.90;;;;;;4223277;28;20044;-81
2024/01/03 06:13:37;;;;;;;13.20;2.87;;;11.10;99.90;;;;;;4221499;28;20093;-81
2024/01/03 06:15:39;;;;;;;12.93;2.90;;;11.10;99.90;;;;;;4221102;28;20533;-82
2024/01/03 06:17:41;;;;;;;15.25;3.15;;;11.20;99.90;;;;;;4221194;28;20048;-81
2024/01/03 06:19:44;;;;;;;15.85;2.95;;;11.20;99.90;;;;;;4222512;28;20074;-82
2024/01/03 06:21:46;;;;;;;17.48;3.40;;;11.20;99.90;;;;;;4222256;28;20174;-81
2024/01/03 06:23:48;;;;;;;14.55;3.33;;;11.20;99.90;;;;;;4221059;28;20083;-81
2024/01/03 06:25:52;;;;;;;13.45;3.50;;;11.10;99.90;;;;;;4203314;28;20056;-82
2024/01/03 06:27:55;;;;;;;18.58;3.40;;;11.10;99.90;;;;;;4219972;28;20131;-80
2024/01/03 06:29:57;;;;;;;13.02;3.47;;;11.10;99.90;;;;;;4219916;28;20059;-81
2024/01/03 06:32:00;;;;;;;14.48;3.72;;;11.00;99.90;;;;;;4220209;28;20048;-81
2024/01/03 06:34:03;;;;;;;14.30;3.83;;;11.00;99.90;;;;;;4219509;28;20040;-81
2024/01/03 06:36:05;;;;;;;14.60;3.90;;;11.00;99.90;;;;;;4219262;28;20046;-81
2024/01/03 06:38:07;;;;;;;19.83;4.43;;;11.00;99.90;;;;;;4218905;28;20052;-80
2024/01/03 06:40:10;;;;;;;22.80;5.38;;;11.00;99.90;;;;;;4219913;28;20152;-81
2024/01/03 06:42:12;;;;;;;22.25;4.65;;;11.00;99.90;;;;;;4218704;28;20143;-80
2024/01/03 06:44:16;;;;;;;24.17;5.78;;;11.00;99.90;;;;;;4216997;28;20048;-80
2024/01/03 06:46:18;;;;;;;19.58;5.25;;;11.00;99.90;;;;;;4216812;28;20131;-81
2024/01/03 06:48:21;;;;;;;21.00;5.00;;;11.00;99.90;;;;;;4216503;28;20048;-80
2024/01/03 06:50:24;;;;;;;30.98;4.97;;;11.00;99.90;;;;;;4216698;28;20134;-81
2024/01/03 06:52:26;;;;;;;20.58;4.82;;;11.00;99.90;;;;;;4216167;28;20131;-81
2024/01/03 06:54:28;;;;;;;28.38;5.68;;;11.00;99.90;;;;;;4216511;28;20067;-80
2024/01/03 06:56:30;;;;;;;26.65;5.25;;;11.00;99.90;;;;;;4217885;28;20040;-81
2024/01/03 06:58:32;;;;;;;27.05;5.30;;;11.00;99.90;;;;;;4216765;28;20092;-82
2024/01/03 07:00:36;;;;;;;27.98;6.18;;;11.00;99.90;;;;;;4217186;28;20072;-82
2024/01/03 07:02:40;;;;;;;25.70;5.45;;;11.00;99.90;;;;;;4216305;28;20105;-81
2024/01/03 07:04:42;;;;;;;36.63;8.77;;;11.00;99.90;;;;;;4216722;28;20123;-81
2024/01/03 07:06:44;;;;;;;25.75;6.03;;;11.00;99.90;;;;;;4216583;28;20100;-81
2024/01/03 07:08:48;;;;;;;19.17;4.72;;;11.00;99.90;;;;;;4217106;28;20505;-81
2024/01/03 07:10:51;;;;;;;21.73;5.45;;;11.00;99.90;;;;;;4216837;28;20096;-81
2024/01/03 07:12:53;;;;;;;28.35;6.20;;;11.00;99.90;;;;;;4216767;28;20044;-81
2024/01/03 07:14:56;;;;;;;26.23;6.47;;;11.00;99.90;;;;;;4203229;28;20040;-81
2024/01/03 07:17:00;;;;;;;24.90;5.80;;;11.00;99.90;;;;;;4199309;28;20082;-81
2024/01/03 07:19:02;;;;;;;26.60;6.07;;;11.00;99.90;;;;;;4199008;28;20123;-80
2024/01/03 07:21:04;;;;;;;33.53;7.00;;;11.00;99.90;;;;;;4198830;28;20472;-81
2024/01/03 07:23:07;;;;;;;37.25;8.40;;;10.90;99.90;;;;;;4200023;28;20067;-81
2024/01/03 07:25:10;;;;;;;24.45;5.45;;;11.00;99.90;;;;;;4181561;28;20059;-80
2024/01/03 07:27:12;;;;;;;30.55;6.40;;;11.00;99.90;;;;;;4198185;28;20053;-80
2024/01/03 07:29:13;;;;;;;21.42;5.68;;;11.00;99.90;;;;;;4198644;28;20052;-80
2024/01/03 07:31:16;;;;;;;28.17;5.45;;;11.00;99.90;;;;;;4198342;28;20052;-80
2024/01/03 07:33:19;;;;;;;32.38;7.43;;;11.00;99.90;;;;;;4198483;28;20196;-80
2024/01/03 07:35:21;;;;;;;28.67;6.53;;;11.00;99.90;;;;;;4198260;28;20506;-80
2024/01/03 07:37:23;;;;;;;27.83;5.43;;;11.10;99.90;;;;;;4198746;28;20059;-81
2024/01/03 07:39:25;;;;;;;29.45;6.45;;;11.00;99.90;;;;;;4198685;28;20064;-80
2024/01/03 07:41:28;;;;;;;42.00;14.68;;;11.10;99.90;;;;;;4198307;28;20049;-80
2024/01/03 07:43:31;;;;;;;35.35;8.40;;;11.10;99.90;;;;;;4198444;28;20131;-80
2024/01/03 07:45:34;;;;;;;31.40;6.78;;;11.10;99.90;;;;;;4199216;28;20044;-81
2024/01/03 07:47:37;;;;;;;34.87;6.87;;;11.10;99.90;;;;;;4198920;28;20049;-81
2024/01/03 07:49:42;;;;;;;34.83;7.38;;;11.10;99.90;;;;;;4198247;28;20052;-81
2024/01/03 07:51:48;;;;;;;38.65;8.35;;;11.10;99.90;;;;;;4198801;28;20044;-81
2024/01/03 07:53:51;;;;;;;42.25;8.20;;;11.10;99.90;;;;;;4198629;28;20094;-81
2024/01/03 07:55:53;;;;;;;40.40;9.13;;;11.10;99.90;;;;;;4198315;28;20050;-81
2024/01/03 07:57:55;;;;;;;38.58;7.28;;;11.10;99.90;;;;;;4202547;28;20049;-81
2024/01/03 07:59:57;;;;;;;41.50;8.15;;;11.10;99.90;;;;;;4212604;28;20062;-80
2024/01/03 08:01:59;;;;;;;36.67;7.82;;;11.20;99.90;;;;;;4221386;28;20044;-81
2024/01/03 08:04:04;;;;;;;30.75;6.57;;;11.10;99.90;;;;;;4218815;28;20127;-81
2024/01/03 08:06:08;;;;;;;29.88;6.85;;;11.10;99.90;;;;;;4216253;28;20048;-81
2024/01/03 08:08:10;;;;;;;39.40;7.57;;;11.10;99.90;;;;;;4216114;28;20044;-80
2024/01/03 08:10:13;;;;;;;39.50;9.98;;;11.10;99.90;;;;;;4198490;28;20058;-81
2024/01/03 08:12:15;;;;;;;32.05;7.88;;;11.10;99.90;;;;;;4215408;28;20411;-81
2024/01/03 08:14:17;;;;;;;37.60;8.55;;;11.20;99.90;;;;;;4215793;28;20423;-82
2024/01/03 08:16:19;;;;;;;32.20;7.40;;;11.20;99.90;;;;;;4216250;28;20134;-80
2024/01/03 08:18:21;;;;;;;36.15;7.45;;;11.30;99.90;;;;;;4216240;28;20533;-81
2024/01/03 08:20:23;;;;;;;32.28;6.65;;;11.30;99.90;;;;;;4215975;28;20048;-80
2024/01/03 08:22:27;;;;;;;30.73;6.22;;;11.30;99.90;;;;;;4216610;28;20131;-80
2024/01/03 08:24:30;;;;;;;33.10;6.75;;;11.20;99.90;;;;;;4217364;28;20064;-80
2024/01/03 08:26:34;;;;;;;27.73;5.05;;;11.20;99.90;;;;;;4216470;28;20048;-80
2024/01/03 08:28:37;;;;;;;23.98;5.03;;;11.30;99.90;;;;;;4225132;28;20052;-80
2024/01/03 08:30:39;;;;;;;24.63;5.43;;;11.30;99.90;;;;;;4222303;28;20144;-80
2024/01/03 08:32:42;;;;;;;24.00;7.15;;;11.30;99.90;;;;;;4222011;28;20050;-82
2024/01/03 08:34:45;;;;;;;21.33;5.10;;;11.20;99.90;;;;;;4222714;28;20079;-79
2024/01/03 08:36:48;;;;;;;22.98;5.60;;;11.10;99.90;;;;;;4203226;28;20044;-79
2024/01/03 08:38:51;;;;;;;22.27;5.53;;;11.10;99.90;;;;;;4220551;28;20452;-79
2024/01/03 08:40:53;;;;;;;22.17;4.80;;;11.10;99.90;;;;;;4221231;28;20075;-79
2024/01/03 08:42:56;;;;;;;16.65;4.45;;;11.10;99.90;;;;;;4221638;28;20044;-79
2024/01/03 08:44:58;;;;;;;21.92;4.88;;;11.20;99.90;;;;;;4222263;28;20040;-79
2024/01/03 08:47:00;;;;;;;23.10;5.15;;;11.10;99.90;;;;;;4217767;28;20125;-79
2024/01/03 08:49:03;;;;;;;21.35;5.30;;;11.10;99.90;;;;;;4217768;28;20044;-79
2024/01/03 08:51:11;;;;;;;25.02;5.28;;;11.10;99.90;;;;;;4217245;28;20495;-79
2024/01/03 08:53:14;;;;;;;23.45;4.95;;;11.20;99.90;;;;;;4217193;28;20075;-79
2024/01/03 08:55:18;;;;;;;22.95;5.47;;;11.10;99.90;;;;;;4217165;28;20048;-79
2024/01/03 08:57:20;;;;;;;25.75;5.28;;;11.10;99.90;;;;;;4217483;28;20552;-78
2024/01/03 08:59:22;;;;;;;33.50;6.25;;;11.10;99.90;;;;;;4217403;28;20051;-79
2024/01/03 09:01:27;;;;;;;27.85;8.00;;;11.10;99.90;;;;;;4217046;28;20071;-79
2024/01/03 09:03:29;;;;;;;30.27;6.90;;;11.10;99.90;;;;;;4217004;28;20070;-79
2024/01/03 09:05:31;;;;;;;24.77;6.38;;;11.20;99.90;;;;;;4217141;28;20054;-79
2024/01/03 09:07:33;;;;;;;27.10;6.22;;;11.20;99.90;;;;;;4199116;28;20045;-79
2024/01/03 09:09:39;;;;;;;31.45;6.75;;;11.20;99.90;;;;;;4216963;28;20410;-79
2024/01/03 09:11:42;;;;;;;37.60;10.48;;;11.20;99.90;;;;;;4216811;28;20119;-79
2024/01/03 09:13:49;;;;;;;30.15;6.88;;;11.30;99.90;;;;;;4216690;28;20051;-79
2024/01/03 09:15:52;;;;;;;31.55;6.95;;;11.30;99.90;;;;;;4216222;28;20548;-79
2024/01/03 09:17:54;;;;;;;28.05;7.38;;;11.30;99.90;;;;;;4216414;28;20101;-78
2024/01/03 09:19:56;;;;;;;34.53;6.97;;;11.30;99.90;;;;;;4216575;28;20384;-79
2024/01/03 09:22:00;;;;;;;40.80;9.63;;;11.30;99.90;;;;;;4216440;28;20044;-80
2024/01/03 09:24:04;;;;;;;32.45;8.07;;;11.30;99.90;;;;;;4216688;28;20071;-79
2024/01/03 09:26:07;;;;;;;33.90;7.47;;;11.40;99.90;;;;;;4216682;28;20383;-79
2024/01/03 09:28:11;;;;;;;28.17;6.22;;;11.40;99.90;;;;;;4216543;28;20312;-79
2024/01/03 09:30:14;;;;;;;33.13;6.55;;;11.50;99.90;;;;;;4216432;28;20146;-79
2024/01/03 09:32:17;;;;;;;41.45;7.70;;;11.40;99.90;;;;;;4217030;28;20059;-79
2024/01/03 09:34:19;;;;;;;39.70;6.95;;;11.50;99.90;;;;;;4217455;28;20055;-78
2024/01/03 09:36:22;;;;;;;28.67;6.20;;;11.50;99.90;;;;;;4217747;28;20064;-79
2024/01/03 09:38:30;;;;;;;33.72;7.78;;;11.50;99.90;;;;;;4200029;28;20069;-80
2024/01/03 09:40:33;;;;;;;37.65;7.57;;;11.60;99.90;;;;;;4199183;28;20051;-80
2024/01/03 09:42:36;;;;;;;38.28;8.15;;;11.60;99.90;;;;;;4217528;28;20101;-79
2024/01/03 09:44:42;;;;;;;33.47;6.75;;;11.70;99.90;;;;;;4217237;28;20064;-80
2024/01/03 09:46:48;;;;;;;;;;;11.70;99.90;;;;;;4219442;28;20074;-82
2024/01/03 09:48:51;;;;;;;29.05;7.50;;;11.70;99.90;;;;;;4223212;28;20063;-80
2024/01/03 09:50:53;;;;;;;35.92;6.75;;;11.60;99.90;;;;;;4203856;28;20087;-81
2024/01/03 09:52:57;;;;;;;34.75;7.45;;;11.70;99.90;;;;;;4223048;28;20048;-80
2024/01/03 09:54:59;;;;;;;31.05;6.55;;;11.70;99.90;;;;;;4220167;28;20048;-80
2024/01/03 09:57:02;;;;;;;37.33;7.30;;;11.70;99.90;;;;;;4223596;28;20074;-80
2024/01/03 09:59:04;;;;;;;37.55;7.95;;;11.80;99.90;;;;;;4224644;28;20422;-80
2024/01/03 10:01:08;;;;;;;29.63;6.25;;;11.80;99.90;;;;;;4222404;28;20040;-80
2024/01/03 10:03:11;;;;;;;35.95;7.35;;;11.80;99.90;;;;;;4222336;28;20052;-81
2024/01/03 10:05:17;;;;;;;33.65;8.02;;;11.80;99.90;;;;;;4222117;28;20051;-81
2024/01/03 10:07:30;;;;;;;39.00;8.35;;;11.80;99.90;;;;;;4219669;28;20040;-81
2024/01/03 10:09:48;;;;;;;32.63;6.55;;;11.90;99.90;;;;;;4217884;28;20043;-81
2024/01/03 10:11:53;;;;;;;31.58;6.53;;;11.90;99.90;;;;;;4217137;28;20127;-80
2024/01/03 10:14:12;;;;;;;34.63;7.55;;;11.90;99.90;;;;;;4210795;28;20052;-80
2024/01/03 10:16:22;;;;;;;34.05;7.47;;;11.90;99.90;;;;;;4199140;28;20071;-80
2024/01/03 10:18:24;;;;;;;31.08;6.68;;;11.90;99.90;;;;;;4181117;28;20087;-80
2024/01/03 10:20:30;;;;;;;33.78;6.75;;;11.90;99.90;;;;;;4199092;28;20048;-80
2024/01/03 10:22:33;;;;;;;36.10;8.05;;;11.90;99.90;;;;;;4199062;28;20131;-79
2024/01/03 10:24:42;;;;;;;32.63;7.43;;;11.90;99.90;;;;;;4198824;28;20067;-80
2024/01/03 10:26:45;;;;;;;32.45;6.88;;;11.80;99.90;;;;;;4198512;28;20068;-80
2024/01/03 10:28:48;;;;;;;38.05;6.75;;;11.80;99.90;;;;;;4198278;28;20083;-80
2024/01/03 10:30:52;;;;;;;32.65;7.15;;;11.90;99.90;;;;;;4198530;28;20053;-80
2024/01/03 10:32:59;;;;;;;31.83;7.18;;;11.90;99.90;;;;;;4198912;28;20049;-80
2024/01/03 10:35:12;;;;;;;32.90;7.32;;;11.90;99.90;;;;;;4198653;28;20488;-80